sensor_id;sensor_type;location;lat;lon;timestamp;noise_LAeq;noise_LA_min;noise_LA_max;noise_LA01;noise_LA95
4048;Laerm;2038;51.728;6.674;2023-02-28T00:01:30;38.09;32.93;40.80;;
4048;Laerm;2038;51.728;6.674;2023-02-28T00:03:57;38.10;33.44;40.62;;
4048;Laerm;2038;51.728;6.674;2023-02-28T00:06:23;38.06;31.68;40.71;;
4048;Laerm;2038;51.728;6.674;2023-02-28T00:08:50;38.10;32.93;40.71;;
4048;Laerm;2038;51.728;6.674;2023-02-28T00:11:16;38.07;33.90;40.80;;
4048;Laerm;2038;51.728;6.674;2023-02-28T00:13:46;38.85;33.90;42.29;;
4048;Laerm;2038;51.728;6.674;2023-02-28T00:16:17;38.29;33.90;40.89;;
4048;Laerm;2038;51.728;6.674;2023-02-28T00:18:43;38.33;33.90;41.53;;
4048;Laerm;2038;51.728;6.674;2023-02-28T00:21:09;38.33;33.90;53.46;;
4048;Laerm;2038;51.728;6.674;2023-02-28T00:23:36;38.05;33.90;40.89;;
4048;Laerm;2038;51.728;6.674;2023-02-28T00:26:03;38.12;32.93;40.80;;
4048;Laerm;2038;51.728;6.674;2023-02-28T00:28:29;38.12;32.35;40.71;;
4048;Laerm;2038;51.728;6.674;2023-02-28T00:30:56;40.51;33.90;57.23;;
4048;Laerm;2038;51.728;6.674;2023-02-28T00:33:23;38.13;33.90;40.62;;
4048;Laerm;2038;51.728;6.674;2023-02-28T00:35:49;38.03;32.93;40.80;;
4048;Laerm;2038;51.728;6.674;2023-02-28T00:38:15;44.94;32.93;61.16;;
4048;Laerm;2038;51.728;6.674;2023-02-28T00:40:42;38.49;33.44;42.09;;
4048;Laerm;2038;51.728;6.674;2023-02-28T00:43:09;38.09;33.44;40.98;;
4048;Laerm;2038;51.728;6.674;2023-02-28T00:45:35;38.09;33.44;40.62;;
4048;Laerm;2038;51.728;6.674;2023-02-28T00:48:01;38.70;33.44;42.03;;
4048;Laerm;2038;51.728;6.674;2023-02-28T00:50:27;38.27;32.35;41.14;;
4048;Laerm;2038;51.728;6.674;2023-02-28T00:52:53;38.39;34.69;41.22;;
4048;Laerm;2038;51.728;6.674;2023-02-28T00:55:20;38.16;33.90;40.98;;
4048;Laerm;2038;51.728;6.674;2023-02-28T00:57:46;38.16;33.44;40.98;;
4048;Laerm;2038;51.728;6.674;2023-02-28T01:00:13;38.20;33.90;40.71;;
4048;Laerm;2038;51.728;6.674;2023-02-28T01:02:39;38.17;33.90;40.80;;
4048;Laerm;2038;51.728;6.674;2023-02-28T01:05:06;39.45;33.90;51.82;;
4048;Laerm;2038;51.728;6.674;2023-02-28T01:07:32;38.46;30.89;42.59;;
4048;Laerm;2038;51.728;6.674;2023-02-28T01:09:58;39.35;32.35;43.77;;
4048;Laerm;2038;51.728;6.674;2023-02-28T01:12:24;39.38;32.93;43.14;;
4048;Laerm;2038;51.728;6.674;2023-02-28T01:14:50;38.34;33.44;41.06;;
4048;Laerm;2038;51.728;6.674;2023-02-28T01:17:16;38.67;34.69;43.99;;
4048;Laerm;2038;51.728;6.674;2023-02-28T01:19:42;45.51;33.44;61.43;;
4048;Laerm;2038;51.728;6.674;2023-02-28T01:22:08;38.31;33.90;40.71;;
4048;Laerm;2038;51.728;6.674;2023-02-28T01:24:35;38.30;33.90;40.71;;
4048;Laerm;2038;51.728;6.674;2023-02-28T01:27:01;38.28;33.90;41.30;;
4048;Laerm;2038;51.728;6.674;2023-02-28T01:29:27;38.18;33.90;40.53;;
4048;Laerm;2038;51.728;6.674;2023-02-28T01:31:53;38.12;34.31;40.71;;
4048;Laerm;2038;51.728;6.674;2023-02-28T01:34:19;38.20;33.90;46.97;;
4048;Laerm;2038;51.728;6.674;2023-02-28T01:36:46;38.54;33.90;43.77;;
4048;Laerm;2038;51.728;6.674;2023-02-28T01:39:12;38.88;34.69;42.65;;
4048;Laerm;2038;51.728;6.674;2023-02-28T01:41:39;38.26;33.44;41.14;;
4048;Laerm;2038;51.728;6.674;2023-02-28T01:44:59;38.13;32.93;42.71;;
4048;Laerm;2038;51.728;6.674;2023-02-28T01:47:35;38.18;32.93;40.80;;
4048;Laerm;2038;51.728;6.674;2023-02-28T01:50:11;40.30;33.90;55.48;;
4048;Laerm;2038;51.728;6.674;2023-02-28T01:52:40;41.08;32.93;58.43;;
4048;Laerm;2038;51.728;6.674;2023-02-28T01:55:08;38.15;33.44;40.80;;
4048;Laerm;2038;51.728;6.674;2023-02-28T01:57:50;38.29;32.93;40.89;;
4048;Laerm;2038;51.728;6.674;2023-02-28T02:00:24;38.28;33.90;40.89;;
4048;Laerm;2038;51.728;6.674;2023-02-28T02:03:06;38.20;30.89;41.61;;
4048;Laerm;2038;51.728;6.674;2023-02-28T02:05:39;38.14;33.44;40.71;;
4048;Laerm;2038;51.728;6.674;2023-02-28T02:08:12;38.13;33.44;41.06;;
4048;Laerm;2038;51.728;6.674;2023-02-28T02:11:01;38.11;32.93;40.80;;
4048;Laerm;2038;51.728;6.674;2023-02-28T02:14:28;38.18;33.90;40.98;;
4048;Laerm;2038;51.728;6.674;2023-02-28T02:17:42;38.10;32.93;40.89;;
4048;Laerm;2038;51.728;6.674;2023-02-28T02:21:01;38.22;33.90;41.14;;
4048;Laerm;2038;51.728;6.674;2023-02-28T02:27:23;38.10;33.44;42.29;;
4048;Laerm;2038;51.728;6.674;2023-02-28T02:36:24;41.40;33.44;56.68;;
4048;Laerm;2038;51.728;6.674;2023-02-28T02:42:14;38.10;33.44;40.62;;
4048;Laerm;2038;51.728;6.674;2023-02-28T02:47:51;39.58;33.44;54.41;;
4048;Laerm;2038;51.728;6.674;2023-02-28T02:50:37;38.30;32.93;49.18;;
4048;Laerm;2038;51.728;6.674;2023-02-28T02:53:06;38.93;33.44;42.93;;
4048;Laerm;2038;51.728;6.674;2023-02-28T02:55:44;41.77;32.35;57.55;;
4048;Laerm;2038;51.728;6.674;2023-02-28T02:58:18;44.57;34.69;62.07;;
4048;Laerm;2038;51.728;6.674;2023-02-28T03:00:54;38.33;32.93;41.30;;
4048;Laerm;2038;51.728;6.674;2023-02-28T03:03:23;40.54;34.31;52.56;;
4048;Laerm;2038;51.728;6.674;2023-02-28T03:05:57;38.82;32.93;42.24;;
4048;Laerm;2038;51.728;6.674;2023-02-28T03:08:24;41.37;32.35;53.71;;
4048;Laerm;2038;51.728;6.674;2023-02-28T03:10:57;43.13;33.44;60.39;;
4048;Laerm;2038;51.728;6.674;2023-02-28T03:14:28;39.39;33.44;54.87;;
4048;Laerm;2038;51.728;6.674;2023-02-28T03:17:29;38.78;32.35;50.72;;
4048;Laerm;2038;51.728;6.674;2023-02-28T03:20:49;38.25;32.35;40.98;;
4048;Laerm;2038;51.728;6.674;2023-02-28T03:26:25;41.67;34.69;57.13;;
4048;Laerm;2038;51.728;6.674;2023-02-28T03:29:14;42.71;33.90;58.10;;
4048;Laerm;2038;51.728;6.674;2023-02-28T03:32:03;38.58;33.44;40.98;;
4048;Laerm;2038;51.728;6.674;2023-02-28T03:34:38;38.56;34.31;41.26;;
4048;Laerm;2038;51.728;6.674;2023-02-28T03:37:22;41.57;35.01;57.06;;
4048;Laerm;2038;51.728;6.674;2023-02-28T03:40:04;42.02;34.69;59.90;;
4048;Laerm;2038;51.728;6.674;2023-02-28T03:42:39;38.58;32.93;42.29;;
4048;Laerm;2038;51.728;6.674;2023-02-28T03:45:21;38.49;33.44;41.75;;
4048;Laerm;2038;51.728;6.674;2023-02-28T03:48:11;38.69;34.31;44.65;;
4048;Laerm;2038;51.728;6.674;2023-02-28T03:50:53;43.48;33.44;58.38;;
4048;Laerm;2038;51.728;6.674;2023-02-28T03:53:39;42.18;33.44;56.79;;
4048;Laerm;2038;51.728;6.674;2023-02-28T03:56:22;43.57;33.90;61.87;;
4048;Laerm;2038;51.728;6.674;2023-02-28T04:01:53;42.62;35.01;61.46;;
4048;Laerm;2038;51.728;6.674;2023-02-28T04:04:21;46.34;34.69;59.34;;
4048;Laerm;2038;51.728;6.674;2023-02-28T04:06:52;43.94;35.04;59.17;;
4048;Laerm;2038;51.728;6.674;2023-02-28T04:09:18;44.42;35.36;59.40;;
4048;Laerm;2038;51.728;6.674;2023-02-28T04:11:52;41.55;35.04;55.60;;
4048;Laerm;2038;51.728;6.674;2023-02-28T04:14:19;43.00;36.20;55.43;;
4048;Laerm;2038;51.728;6.674;2023-02-28T04:16:45;46.95;35.04;62.03;;
4048;Laerm;2038;51.728;6.674;2023-02-28T04:19:13;38.69;34.31;44.39;;
4048;Laerm;2038;51.728;6.674;2023-02-28T04:21:45;43.20;35.66;61.12;;
4048;Laerm;2038;51.728;6.674;2023-02-28T04:24:17;45.19;35.04;61.82;;
4048;Laerm;2038;51.728;6.674;2023-02-28T04:26:51;42.51;35.04;55.61;;
4048;Laerm;2038;51.728;6.674;2023-02-28T04:29:36;46.60;34.69;64.51;;
4048;Laerm;2038;51.728;6.674;2023-02-28T04:32:03;41.44;35.04;55.54;;
4048;Laerm;2038;51.728;6.674;2023-02-28T04:34:32;45.04;33.44;58.90;;
4048;Laerm;2038;51.728;6.674;2023-02-28T04:37:01;43.55;35.66;56.97;;
4048;Laerm;2038;51.728;6.674;2023-02-28T04:39:35;41.17;35.36;56.28;;
4048;Laerm;2038;51.728;6.674;2023-02-28T04:42:02;44.50;33.44;58.59;;
4048;Laerm;2038;51.728;6.674;2023-02-28T04:44:28;44.67;34.69;56.97;;
4048;Laerm;2038;51.728;6.674;2023-02-28T04:46:53;47.22;36.91;62.24;;
4048;Laerm;2038;51.728;6.674;2023-02-28T04:49:19;48.56;35.94;62.19;;
4048;Laerm;2038;51.728;6.674;2023-02-28T04:51:46;43.05;35.04;55.74;;
4048;Laerm;2038;51.728;6.674;2023-02-28T04:54:12;44.47;35.36;59.49;;
4048;Laerm;2038;51.728;6.674;2023-02-28T04:56:39;43.91;35.66;57.43;;
4048;Laerm;2038;51.728;6.674;2023-02-28T04:59:04;47.20;35.04;60.27;;
4048;Laerm;2038;51.728;6.674;2023-02-28T05:01:33;46.70;35.36;58.52;;
4048;Laerm;2038;51.728;6.674;2023-02-28T05:04:03;44.24;34.69;57.76;;
4048;Laerm;2038;51.728;6.674;2023-02-28T05:06:32;42.70;34.69;56.90;;
4048;Laerm;2038;51.728;6.674;2023-02-28T05:08:59;42.39;35.59;55.70;;
4048;Laerm;2038;51.728;6.674;2023-02-28T05:11:30;40.86;34.31;52.14;;
4048;Laerm;2038;51.728;6.674;2023-02-28T05:14:10;43.05;34.69;56.96;;
4048;Laerm;2038;51.728;6.674;2023-02-28T05:16:37;46.91;36.20;58.44;;
4048;Laerm;2038;51.728;6.674;2023-02-28T05:19:03;44.07;36.69;55.12;;
4048;Laerm;2038;51.728;6.674;2023-02-28T05:24:03;47.50;36.69;61.56;;
4048;Laerm;2038;51.728;6.674;2023-02-28T05:26:34;48.69;36.20;62.58;;
4048;Laerm;2038;51.728;6.674;2023-02-28T05:29:00;46.02;36.20;57.83;;
4048;Laerm;2038;51.728;6.674;2023-02-28T05:31:26;47.38;36.45;61.49;;
4048;Laerm;2038;51.728;6.674;2023-02-28T05:33:52;46.17;36.91;60.95;;
4048;Laerm;2038;51.728;6.674;2023-02-28T05:36:18;47.65;37.32;60.03;;
4048;Laerm;2038;51.728;6.674;2023-02-28T05:38:50;49.96;36.45;64.18;;
4048;Laerm;2038;51.728;6.674;2023-02-28T05:41:18;45.85;35.94;57.32;;
4048;Laerm;2038;51.728;6.674;2023-02-28T05:43:47;47.27;37.88;59.81;;
4048;Laerm;2038;51.728;6.674;2023-02-28T05:46:13;46.76;36.69;61.38;;
4048;Laerm;2038;51.728;6.674;2023-02-28T05:48:42;49.05;37.12;62.89;;
4048;Laerm;2038;51.728;6.674;2023-02-28T05:51:09;49.98;37.70;61.10;;
4048;Laerm;2038;51.728;6.674;2023-02-28T05:53:36;50.08;35.94;62.16;;
4048;Laerm;2038;51.728;6.674;2023-02-28T05:56:03;47.95;36.45;62.79;;
4048;Laerm;2038;51.728;6.674;2023-02-28T05:58:29;49.28;37.12;62.46;;
4048;Laerm;2038;51.728;6.674;2023-02-28T06:01:01;47.96;36.69;63.61;;
4048;Laerm;2038;51.728;6.674;2023-02-28T06:03:44;49.74;38.05;68.49;;
4048;Laerm;2038;51.728;6.674;2023-02-28T06:06:09;47.65;36.69;62.02;;
4048;Laerm;2038;51.728;6.674;2023-02-28T06:08:35;49.05;37.70;61.84;;
4048;Laerm;2038;51.728;6.674;2023-02-28T06:11:04;49.51;37.88;61.42;;
4048;Laerm;2038;51.728;6.674;2023-02-28T06:13:30;48.88;37.32;64.89;;
4048;Laerm;2038;51.728;6.674;2023-02-28T06:15:55;47.04;38.05;61.35;;
4048;Laerm;2038;51.728;6.674;2023-02-28T06:18:21;48.10;37.52;64.56;;
4048;Laerm;2038;51.728;6.674;2023-02-28T06:20:54;52.02;39.46;64.84;;
4048;Laerm;2038;51.728;6.674;2023-02-28T06:23:22;48.22;35.94;63.20;;
4048;Laerm;2038;51.728;6.674;2023-02-28T06:25:48;50.75;36.45;63.40;;
4048;Laerm;2038;51.728;6.674;2023-02-28T06:28:15;46.42;37.12;60.12;;
4048;Laerm;2038;51.728;6.674;2023-02-28T06:30:41;47.49;37.35;60.62;;
4048;Laerm;2038;51.728;6.674;2023-02-28T06:33:07;46.15;37.88;60.58;;
4048;Laerm;2038;51.728;6.674;2023-02-28T06:35:32;51.31;37.88;64.63;;
4048;Laerm;2038;51.728;6.674;2023-02-28T06:37:58;48.52;37.88;60.90;;
4048;Laerm;2038;51.728;6.674;2023-02-28T06:40:24;49.40;39.34;65.06;;
4048;Laerm;2038;51.728;6.674;2023-02-28T06:42:50;48.10;36.45;59.58;;
4048;Laerm;2038;51.728;6.674;2023-02-28T06:45:16;49.41;37.52;60.53;;
4048;Laerm;2038;51.728;6.674;2023-02-28T06:47:42;48.45;37.52;58.49;;
4048;Laerm;2038;51.728;6.674;2023-02-28T06:50:12;48.15;37.32;58.24;;
4048;Laerm;2038;51.728;6.674;2023-02-28T06:52:38;50.70;37.88;63.95;;
4048;Laerm;2038;51.728;6.674;2023-02-28T06:55:07;48.76;37.52;59.95;;
4048;Laerm;2038;51.728;6.674;2023-02-28T06:57:35;50.21;38.81;61.77;;
4048;Laerm;2038;51.728;6.674;2023-02-28T07:00:08;45.10;36.45;58.82;;
4048;Laerm;2038;51.728;6.674;2023-02-28T07:02:36;46.94;37.70;58.88;;
4048;Laerm;2038;51.728;6.674;2023-02-28T07:05:06;50.24;38.95;60.72;;
4048;Laerm;2038;51.728;6.674;2023-02-28T07:07:32;46.17;37.32;57.67;;
4048;Laerm;2038;51.728;6.674;2023-02-28T07:09:58;47.53;36.91;60.68;;
4048;Laerm;2038;51.728;6.674;2023-02-28T07:12:24;47.08;36.20;59.19;;
4048;Laerm;2038;51.728;6.674;2023-02-28T07:14:50;49.07;37.32;62.79;;
4048;Laerm;2038;51.728;6.674;2023-02-28T07:17:16;47.48;37.32;61.37;;
4048;Laerm;2038;51.728;6.674;2023-02-28T07:19:42;47.86;36.91;58.06;;
4048;Laerm;2038;51.728;6.674;2023-02-28T07:22:08;45.40;36.45;57.91;;
4048;Laerm;2038;51.728;6.674;2023-02-28T07:24:34;45.03;36.69;62.86;;
4048;Laerm;2038;51.728;6.674;2023-02-28T07:27:00;46.03;36.69;58.48;;
4048;Laerm;2038;51.728;6.674;2023-02-28T07:29:27;46.14;37.12;58.02;;
4048;Laerm;2038;51.728;6.674;2023-02-28T07:31:53;45.12;37.32;57.61;;
4048;Laerm;2038;51.728;6.674;2023-02-28T07:34:20;45.29;36.69;57.08;;
4048;Laerm;2038;51.728;6.674;2023-02-28T07:36:46;49.71;38.05;60.91;;
4048;Laerm;2038;51.728;6.674;2023-02-28T07:39:12;48.78;36.20;63.01;;
4048;Laerm;2038;51.728;6.674;2023-02-28T07:41:38;49.25;37.52;63.26;;
4048;Laerm;2038;51.728;6.674;2023-02-28T07:44:10;47.09;36.45;61.50;;
4048;Laerm;2038;51.728;6.674;2023-02-28T07:46:36;48.54;36.69;65.21;;
4048;Laerm;2038;51.728;6.674;2023-02-28T07:49:03;46.72;37.52;59.13;;
4048;Laerm;2038;51.728;6.674;2023-02-28T07:51:30;48.57;38.81;58.41;;
4048;Laerm;2038;51.728;6.674;2023-02-28T07:53:57;46.97;37.32;59.89;;
4048;Laerm;2038;51.728;6.674;2023-02-28T07:56:23;49.01;37.32;64.00;;
4048;Laerm;2038;51.728;6.674;2023-02-28T07:58:49;48.83;37.32;64.49;;
4048;Laerm;2038;51.728;6.674;2023-02-28T08:01:15;50.97;38.05;63.15;;
4048;Laerm;2038;51.728;6.674;2023-02-28T08:03:41;47.30;37.88;58.29;;
4048;Laerm;2038;51.728;6.674;2023-02-28T08:06:18;44.91;35.66;58.79;;
4048;Laerm;2038;51.728;6.674;2023-02-28T08:08:45;43.80;36.91;59.04;;
4048;Laerm;2038;51.728;6.674;2023-02-28T08:11:11;46.35;37.12;61.58;;
4048;Laerm;2038;51.728;6.674;2023-02-28T08:13:36;48.47;35.66;64.98;;
4048;Laerm;2038;51.728;6.674;2023-02-28T08:16:02;48.50;36.45;64.31;;
4048;Laerm;2038;51.728;6.674;2023-02-28T08:18:28;49.45;36.20;65.76;;
4048;Laerm;2038;51.728;6.674;2023-02-28T08:20:54;43.81;35.04;55.45;;
4048;Laerm;2038;51.728;6.674;2023-02-28T08:23:20;43.46;36.20;59.91;;
4048;Laerm;2038;51.728;6.674;2023-02-28T08:25:55;47.65;36.45;60.62;;
4048;Laerm;2038;51.728;6.674;2023-02-28T08:28:22;50.04;35.66;61.36;;
4048;Laerm;2038;51.728;6.674;2023-02-28T08:30:48;45.90;35.36;57.53;;
4048;Laerm;2038;51.728;6.674;2023-02-28T08:33:14;43.12;34.31;57.90;;
4048;Laerm;2038;51.728;6.674;2023-02-28T08:35:40;50.43;36.45;63.54;;
4048;Laerm;2038;51.728;6.674;2023-02-28T08:38:06;45.66;34.31;61.15;;
4048;Laerm;2038;51.728;6.674;2023-02-28T08:40:32;47.30;34.31;60.49;;
4048;Laerm;2038;51.728;6.674;2023-02-28T08:42:58;49.08;35.36;62.65;;
4048;Laerm;2038;51.728;6.674;2023-02-28T08:45:25;43.24;34.69;57.90;;
4048;Laerm;2038;51.728;6.674;2023-02-28T08:47:51;44.70;34.69;56.25;;
4048;Laerm;2038;51.728;6.674;2023-02-28T08:50:21;46.92;32.35;65.99;;
4048;Laerm;2038;51.728;6.674;2023-02-28T08:52:47;49.40;36.20;65.79;;
4048;Laerm;2038;51.728;6.674;2023-02-28T08:55:14;46.43;36.20;60.25;;
4048;Laerm;2038;51.728;6.674;2023-02-28T08:57:40;45.84;35.36;57.77;;
4048;Laerm;2038;51.728;6.674;2023-02-28T09:00:07;48.34;33.55;62.23;;
4048;Laerm;2038;51.728;6.674;2023-02-28T09:02:33;48.18;34.31;60.72;;
4048;Laerm;2038;51.728;6.674;2023-02-28T09:04:59;49.61;35.04;63.88;;
4048;Laerm;2038;51.728;6.674;2023-02-28T09:07:25;43.89;34.69;56.25;;
4048;Laerm;2038;51.728;6.674;2023-02-28T09:09:51;46.50;33.90;57.78;;
4048;Laerm;2038;51.728;6.674;2023-02-28T09:12:34;49.76;34.31;65.65;;
4048;Laerm;2038;51.728;6.674;2023-02-28T09:15:02;47.58;35.36;61.36;;
4048;Laerm;2038;51.728;6.674;2023-02-28T09:17:28;44.18;35.36;57.09;;
4048;Laerm;2038;51.728;6.674;2023-02-28T09:19:54;48.32;32.93;67.86;;
4048;Laerm;2038;51.728;6.674;2023-02-28T09:22:19;48.59;36.45;59.88;;
4048;Laerm;2038;51.728;6.674;2023-02-28T09:24:45;42.42;33.90;53.79;;
4048;Laerm;2038;51.728;6.674;2023-02-28T09:27:11;48.46;36.45;65.07;;
4048;Laerm;2038;51.728;6.674;2023-02-28T09:29:37;49.30;35.36;62.71;;
4048;Laerm;2038;51.728;6.674;2023-02-28T09:32:03;45.99;35.66;56.34;;
4048;Laerm;2038;51.728;6.674;2023-02-28T09:34:31;46.51;35.36;59.96;;
4048;Laerm;2038;51.728;6.674;2023-02-28T09:36:57;44.41;35.66;57.28;;
4048;Laerm;2038;51.728;6.674;2023-02-28T09:39:23;47.15;36.91;62.77;;
4048;Laerm;2038;51.728;6.674;2023-02-28T09:41:54;47.07;36.45;59.55;;
4048;Laerm;2038;51.728;6.674;2023-02-28T09:44:43;46.98;36.45;60.05;;
4048;Laerm;2038;51.728;6.674;2023-02-28T09:47:41;46.77;36.45;56.60;;
4048;Laerm;2038;51.728;6.674;2023-02-28T09:50:41;47.22;38.21;69.49;;
4048;Laerm;2038;51.728;6.674;2023-02-28T09:53:32;45.40;36.56;59.00;;
4048;Laerm;2038;51.728;6.674;2023-02-28T09:56:09;48.51;36.45;61.48;;
4048;Laerm;2038;51.728;6.674;2023-02-28T09:59:29;49.31;36.20;62.96;;
4048;Laerm;2038;51.728;6.674;2023-02-28T10:04:59;45.88;36.20;61.01;;
4048;Laerm;2038;51.728;6.674;2023-02-28T10:08:13;46.50;36.20;57.71;;
4048;Laerm;2038;51.728;6.674;2023-02-28T10:10:54;46.12;36.69;58.26;;
4048;Laerm;2038;51.728;6.674;2023-02-28T10:13:36;46.30;37.12;57.89;;
4048;Laerm;2038;51.728;6.674;2023-02-28T10:16:29;50.71;36.20;68.58;;
4048;Laerm;2038;51.728;6.674;2023-02-28T10:19:06;45.58;35.04;55.32;;
4048;Laerm;2038;51.728;6.674;2023-02-28T10:21:47;49.44;37.32;63.24;;
4048;Laerm;2038;51.728;6.674;2023-02-28T10:24:40;45.04;35.66;56.78;;
4048;Laerm;2038;51.728;6.674;2023-02-28T10:27:23;46.09;35.04;57.30;;
4048;Laerm;2038;51.728;6.674;2023-02-28T10:29:56;47.85;37.32;59.02;;
4048;Laerm;2038;51.728;6.674;2023-02-28T10:32:34;46.36;36.45;60.61;;
4048;Laerm;2038;51.728;6.674;2023-02-28T10:37:45;44.82;35.66;59.72;;
4048;Laerm;2038;51.728;6.674;2023-02-28T10:40:35;46.07;36.69;59.92;;
4048;Laerm;2038;51.728;6.674;2023-02-28T10:43:20;44.59;36.20;61.59;;
4048;Laerm;2038;51.728;6.674;2023-02-28T10:48:37;44.60;35.94;55.43;;
4048;Laerm;2038;51.728;6.674;2023-02-28T10:51:12;43.76;36.91;55.27;;
4048;Laerm;2038;51.728;6.674;2023-02-28T10:53:50;47.31;37.32;59.20;;
4048;Laerm;2038;51.728;6.674;2023-02-28T10:56:21;46.39;37.32;58.93;;
4048;Laerm;2038;51.728;6.674;2023-02-28T11:01:38;45.24;36.91;53.35;;
4048;Laerm;2038;51.728;6.674;2023-02-28T11:07:31;46.06;37.88;57.58;;
4048;Laerm;2038;51.728;6.674;2023-02-28T11:09:58;49.84;37.70;60.88;;
4048;Laerm;2038;51.728;6.674;2023-02-28T11:12:37;44.92;37.12;55.68;;
4048;Laerm;2038;51.728;6.674;2023-02-28T11:15:28;54.57;38.21;74.24;;
4048;Laerm;2038;51.728;6.674;2023-02-28T11:18:02;47.06;35.94;56.86;;
4048;Laerm;2038;51.728;6.674;2023-02-28T11:20:34;48.24;35.94;61.27;;
4048;Laerm;2038;51.728;6.674;2023-02-28T11:23:03;46.29;35.36;59.35;;
4048;Laerm;2038;51.728;6.674;2023-02-28T11:25:36;48.45;36.45;62.36;;
4048;Laerm;2038;51.728;6.674;2023-02-28T11:28:29;49.29;36.69;66.93;;
4048;Laerm;2038;51.728;6.674;2023-02-28T11:33:54;47.12;34.69;56.88;;
4048;Laerm;2038;51.728;6.674;2023-02-28T11:36:28;45.35;35.36;57.04;;
4048;Laerm;2038;51.728;6.674;2023-02-28T11:39:04;44.48;37.12;58.57;;
4048;Laerm;2038;51.728;6.674;2023-02-28T11:42:14;43.25;35.04;55.47;;
4048;Laerm;2038;51.728;6.674;2023-02-28T11:50:36;45.86;35.66;57.68;;
4048;Laerm;2038;51.728;6.674;2023-02-28T11:53:21;44.19;35.94;55.22;;
4048;Laerm;2038;51.728;6.674;2023-02-28T12:02:06;46.80;34.69;57.06;;
4048;Laerm;2038;51.728;6.674;2023-02-28T12:11:55;46.16;37.88;60.41;;
4048;Laerm;2038;51.728;6.674;2023-02-28T12:14:49;46.19;34.31;62.29;;
4048;Laerm;2038;51.728;6.674;2023-02-28T12:20:54;49.57;37.32;62.20;;
4048;Laerm;2038;51.728;6.674;2023-02-28T12:24:02;46.38;38.99;62.37;;
4048;Laerm;2038;51.728;6.674;2023-02-28T12:26:39;49.82;38.52;64.10;;
4048;Laerm;2038;51.728;6.674;2023-02-28T12:29:29;49.59;37.52;63.65;;
4048;Laerm;2038;51.728;6.674;2023-02-28T12:32:14;48.15;38.05;58.58;;
4048;Laerm;2038;51.728;6.674;2023-02-28T12:34:55;46.03;38.67;56.83;;
4048;Laerm;2038;51.728;6.674;2023-02-28T12:37:41;47.97;37.88;60.40;;
4048;Laerm;2038;51.728;6.674;2023-02-28T12:40:20;48.27;35.36;63.60;;
4048;Laerm;2038;51.728;6.674;2023-02-28T12:42:57;45.02;35.36;56.33;;
4048;Laerm;2038;51.728;6.674;2023-02-28T12:45:40;47.48;35.04;64.37;;
4048;Laerm;2038;51.728;6.674;2023-02-28T12:48:26;47.76;35.66;59.56;;
4048;Laerm;2038;51.728;6.674;2023-02-28T12:50:54;49.18;38.81;62.14;;
4048;Laerm;2038;51.728;6.674;2023-02-28T12:57:41;47.90;36.69;63.02;;
4048;Laerm;2038;51.728;6.674;2023-02-28T13:00:30;44.57;36.20;55.46;;
4048;Laerm;2038;51.728;6.674;2023-02-28T13:03:38;46.06;36.91;56.40;;
4048;Laerm;2038;51.728;6.674;2023-02-28T13:07:29;47.57;35.36;61.72;;
4048;Laerm;2038;51.728;6.674;2023-02-28T13:09:37;46.87;37.32;56.55;;
4048;Laerm;2038;51.728;6.674;2023-02-28T13:12:15;46.20;36.69;58.00;;
4048;Laerm;2038;51.728;6.674;2023-02-28T13:14:43;46.76;37.52;55.81;;
4048;Laerm;2038;51.728;6.674;2023-02-28T13:19:58;53.24;38.37;68.15;;
4048;Laerm;2038;51.728;6.674;2023-02-28T13:22:48;50.44;39.08;61.24;;
4048;Laerm;2038;51.728;6.674;2023-02-28T13:31:16;50.07;38.21;65.84;;
4048;Laerm;2038;51.728;6.674;2023-02-28T13:38:47;48.06;37.88;59.15;;
4048;Laerm;2038;51.728;6.674;2023-02-28T13:44:20;47.43;38.21;62.16;;
4048;Laerm;2038;51.728;6.674;2023-02-28T13:52:12;49.20;36.20;62.17;;
4048;Laerm;2038;51.728;6.674;2023-02-28T13:55:43;47.43;36.91;60.24;;
4048;Laerm;2038;51.728;6.674;2023-02-28T13:58:46;47.54;36.45;62.32;;
4048;Laerm;2038;51.728;6.674;2023-02-28T14:04:49;47.44;35.04;56.95;;
4048;Laerm;2038;51.728;6.674;2023-02-28T14:07:29;53.65;36.69;72.00;;
4048;Laerm;2038;51.728;6.674;2023-02-28T14:10:06;47.96;36.69;59.88;;
4048;Laerm;2038;51.728;6.674;2023-02-28T14:13:02;48.86;36.69;62.35;;
4048;Laerm;2038;51.728;6.674;2023-02-28T14:15:44;49.61;38.52;64.80;;
4048;Laerm;2038;51.728;6.674;2023-02-28T14:18:34;47.84;36.91;58.83;;
4048;Laerm;2038;51.728;6.674;2023-02-28T14:21:16;48.46;36.91;59.24;;
4048;Laerm;2038;51.728;6.674;2023-02-28T14:24:30;50.62;36.91;66.75;;
4048;Laerm;2038;51.728;6.674;2023-02-28T14:30:50;47.48;35.94;58.93;;
4048;Laerm;2038;51.728;6.674;2023-02-28T14:36:42;49.05;36.91;67.52;;
4048;Laerm;2038;51.728;6.674;2023-02-28T14:39:22;49.94;37.88;62.38;;
4048;Laerm;2038;51.728;6.674;2023-02-28T14:41:49;51.24;36.20;72.64;;
4048;Laerm;2038;51.728;6.674;2023-02-28T14:44:26;48.35;35.66;64.98;;
4048;Laerm;2038;51.728;6.674;2023-02-28T14:47:01;51.97;36.91;72.72;;
4048;Laerm;2038;51.728;6.674;2023-02-28T14:49:46;48.99;36.91;65.03;;
4048;Laerm;2038;51.728;6.674;2023-02-28T14:52:21;48.65;36.20;58.98;;
4048;Laerm;2038;51.728;6.674;2023-02-28T14:55:06;47.47;36.91;62.34;;
4048;Laerm;2038;51.728;6.674;2023-02-28T14:57:53;47.28;36.45;58.10;;
4048;Laerm;2038;51.728;6.674;2023-02-28T15:00:30;48.36;37.12;60.10;;
4048;Laerm;2038;51.728;6.674;2023-02-28T15:02:59;46.42;36.91;57.95;;
4048;Laerm;2038;51.728;6.674;2023-02-28T15:05:34;45.50;34.69;58.11;;
4048;Laerm;2038;51.728;6.674;2023-02-28T15:08:15;48.12;33.90;60.02;;
4048;Laerm;2038;51.728;6.674;2023-02-28T15:10:58;49.60;37.52;60.77;;
4048;Laerm;2038;51.728;6.674;2023-02-28T15:13:50;48.41;37.70;58.21;;
4048;Laerm;2038;51.728;6.674;2023-02-28T15:19:00;49.27;36.20;60.10;;
4048;Laerm;2038;51.728;6.674;2023-02-28T15:21:37;48.68;36.20;58.98;;
4048;Laerm;2038;51.728;6.674;2023-02-28T15:24:45;50.32;38.02;63.76;;
4048;Laerm;2038;51.728;6.674;2023-02-28T15:27:21;49.81;38.67;60.81;;
4048;Laerm;2038;51.728;6.674;2023-02-28T15:29:59;49.12;37.88;59.82;;
4048;Laerm;2038;51.728;6.674;2023-02-28T15:32:37;49.55;37.12;61.02;;
4048;Laerm;2038;51.728;6.674;2023-02-28T15:35:31;49.50;36.69;59.83;;
4048;Laerm;2038;51.728;6.674;2023-02-28T15:38:15;50.50;36.91;62.49;;
4048;Laerm;2038;51.728;6.674;2023-02-28T15:40:52;48.70;36.45;60.29;;
4048;Laerm;2038;51.728;6.674;2023-02-28T15:43:32;48.46;35.04;59.64;;
4048;Laerm;2038;51.728;6.674;2023-02-28T15:46:10;45.88;36.91;56.98;;
4048;Laerm;2038;51.728;6.674;2023-02-28T15:48:54;53.82;36.69;69.47;;
4048;Laerm;2038;51.728;6.674;2023-02-28T15:51:36;52.11;38.37;61.28;;
4048;Laerm;2038;51.728;6.674;2023-02-28T15:54:12;51.71;36.69;66.02;;
4048;Laerm;2038;51.728;6.674;2023-02-28T15:56:46;45.27;36.20;58.01;;
4048;Laerm;2038;51.728;6.674;2023-02-28T15:59:24;48.11;36.69;59.06;;
4048;Laerm;2038;51.728;6.674;2023-02-28T16:02:18;49.23;36.69;60.82;;
4048;Laerm;2038;51.728;6.674;2023-02-28T16:05:30;48.64;35.94;58.08;;
4048;Laerm;2038;51.728;6.674;2023-02-28T16:08:14;49.61;37.12;59.65;;
4048;Laerm;2038;51.728;6.674;2023-02-28T16:10:41;51.67;37.52;67.18;;
4048;Laerm;2038;51.728;6.674;2023-02-28T16:13:11;48.21;36.45;57.69;;
4048;Laerm;2038;51.728;6.674;2023-02-28T16:15:43;51.80;39.81;64.68;;
4048;Laerm;2038;51.728;6.674;2023-02-28T16:18:12;46.52;35.36;57.66;;
4048;Laerm;2038;51.728;6.674;2023-02-28T16:20:39;47.11;36.45;58.07;;
4048;Laerm;2038;51.728;6.674;2023-02-28T16:23:05;46.30;36.20;57.46;;
4048;Laerm;2038;51.728;6.674;2023-02-28T16:25:38;47.92;36.45;58.76;;
4048;Laerm;2038;51.728;6.674;2023-02-28T16:28:19;47.50;35.04;60.17;;
4048;Laerm;2038;51.728;6.674;2023-02-28T16:30:47;48.19;36.20;60.31;;
4048;Laerm;2038;51.728;6.674;2023-02-28T16:33:13;45.04;36.20;56.37;;
4048;Laerm;2038;51.728;6.674;2023-02-28T16:35:39;48.18;35.36;61.29;;